Terminal Aerodrome Forecast
Issued by NWS Wilmington, OH

Current Version | Previous Version | Graphics & Text | Print | Product List | Glossary On
Versions: 1 2 3 4 5 6 7 8 9 10 11 12 13
142
FTUS41 KILN 260532
TAFCMH
TAF
KCMH 260532Z 2606/2706 VRB03KT P6SM SCT250
     FM261000 00000KT 5SM BR SKC
     FM261300 00000KT P6SM SKC
     FM261600 27003KT P6SM FEW050
     FM270000 VRB03KT P6SM SKC=

USA.gov is the U.S. government's official web portal to all federal, state and local government web resources and services.